Time,TemperatureF,DewpointF,PressureIn,WindDirection,WindDirectionDegrees,WindSpeedMPH,WindSpeedGustMPH,Humidity,HourlyPrecipIn,Conditions,Clouds,dailyrainin,SoftwareType,DateUTC
2013-04-22 00:00:00,68.6,67.4,30.04,North,360,0.0,0.0,96,0.00,,,0.57,Wunderground v.1.15,2013-04-22 04:00:00,
2013-04-22 00:05:00,68.5,67.3,30.04,North,360,0.0,0.0,96,0.00,,,0.00,Wunderground v.1.15,2013-04-22 04:05:00,
2013-04-22 00:10:00,68.5,67.3,30.04,North,360,0.0,0.0,96,0.00,,,0.00,Wunderground v.1.15,2013-04-22 04:10:00,
2013-04-22 00:15:00,68.5,67.3,30.04,North,360,0.0,0.0,96,0.00,,,0.00,Wunderground v.1.15,2013-04-22 04:15:00,
2013-04-22 00:20:00,68.5,67.3,30.04,North,360,0.0,0.0,96,0.00,,,0.00,Wunderground v.1.15,2013-04-22 04:20:00,
2013-04-22 00:25:00,68.6,67.4,30.03,North,360,0.0,0.0,96,0.00,,,0.00,Wunderground v.1.15,2013-04-22 04:25:00,
2013-04-22 00:30:00,68.6,67.4,30.03,North,360,0.0,0.0,96,0.00,,,0.00,Wunderground v.1.15,2013-04-22 04:30:00,
2013-04-22 00:35:00,68.5,67.3,30.03,North,360,0.0,0.0,96,0.00,,,0.00,Wunderground v.1.15,2013-04-22 04:35:00,
2013-04-22 00:40:00,68.4,67.2,30.02,North,360,0.0,0.0,96,0.00,,,0.00,Wunderground v.1.15,2013-04-22 04:40:00,
2013-04-22 00:45:00,68.4,67.2,30.02,North,360,0.0,0.0,96,0.00,,,0.00,Wunderground v.1.15,2013-04-22 04:45:00,
2013-04-22 00:50:00,68.3,67.1,30.02,North,360,0.0,0.0,96,0.00,,,0.00,Wunderground v.1.15,2013-04-22 04:50:00,
2013-04-22 00:55:00,68.1,66.6,30.02,North,360,0.0,0.0,95,0.00,,,0.00,Wunderground v.1.15,2013-04-22 04:55:00,
2013-04-22 01:00:00,68.2,67.0,30.02,North,360,0.0,0.0,96,0.00,,,0.00,Wunderground v.1.15,2013-04-22 05:00:00,
2013-04-22 01:05:00,68.3,67.1,30.02,North,360,0.0,0.0,96,0.00,,,0.00,Wunderground v.1.15,2013-04-22 05:05:00,
2013-04-22 01:10:00,68.2,66.7,30.02,North,360,0.0,0.0,95,0.00,,,0.00,Wunderground v.1.15,2013-04-22 05:10:00,
2013-04-22 01:15:00,68.1,66.9,30.02,North,360,0.0,0.0,96,0.00,,,0.00,Wunderground v.1.15,2013-04-22 05:15:00,
2013-04-22 01:20:00,68.1,66.9,30.02,North,360,0.0,0.0,96,0.00,,,0.00,Wunderground v.1.15,2013-04-22 05:20:00,
2013-04-22 01:25:00,68.1,66.9,30.02,North,360,0.0,0.0,96,0.00,,,0.01,Wunderground v.1.15,2013-04-22 05:25:00,
2013-04-22 01:30:00,68.2,67.0,30.02,North,360,0.0,0.0,96,0.00,,,0.01,Wunderground v.1.15,2013-04-22 05:30:00,
2013-04-22 01:35:00,68.2,67.0,30.02,North,360,0.0,0.0,96,0.00,,,0.01,Wunderground v.1.15,2013-04-22 05:35:00,
2013-04-22 01:40:00,68.2,67.0,30.02,North,360,0.0,0.0,96,0.00,,,0.01,Wunderground v.1.15,2013-04-22 05:40:00,
2013-04-22 01:45:00,68.3,67.1,30.03,North,360,0.0,0.0,96,0.00,,,0.01,Wunderground v.1.15,2013-04-22 05:45:00,
2013-04-22 01:55:00,68.3,67.1,30.03,North,360,0.0,0.0,96,0.00,,,0.02,Wunderground v.1.15,2013-04-22 05:55:00,
2013-04-22 02:00:00,68.3,67.1,30.03,North,360,0.0,0.0,96,0.00,,,0.02,Wunderground v.1.15,2013-04-22 06:00:00,
2013-04-22 02:05:00,68.3,67.1,30.03,North,360,0.0,0.0,96,0.00,,,0.02,Wunderground v.1.15,2013-04-22 06:05:00,
2013-04-22 02:10:00,68.3,67.1,30.03,North,360,0.0,0.0,96,0.00,,,0.02,Wunderground v.1.15,2013-04-22 06:10:00,
2013-04-22 02:15:00,68.3,67.1,30.03,North,360,0.0,0.0,96,0.00,,,0.03,Wunderground v.1.15,2013-04-22 06:15:00,
2013-04-22 02:20:00,68.3,67.1,30.03,North,360,0.0,0.0,96,0.00,,,0.03,Wunderground v.1.15,2013-04-22 06:20:00,
2013-04-22 02:25:00,68.3,67.1,30.03,North,360,0.0,0.0,96,0.00,,,0.03,Wunderground v.1.15,2013-04-22 06:25:00,
2013-04-22 02:30:00,68.3,67.1,30.02,North,360,0.0,0.0,96,0.00,,,0.03,Wunderground v.1.15,2013-04-22 06:30:00,
2013-04-22 02:35:00,68.3,67.1,30.02,North,360,0.0,2.0,96,0.00,,,0.04,Wunderground v.1.15,2013-04-22 06:35:00,
2013-04-22 02:40:00,68.3,67.1,30.02,North,360,0.0,0.0,96,0.00,,,0.04,Wunderground v.1.15,2013-04-22 06:40:00,
2013-04-22 02:45:00,68.2,67.0,30.02,North,360,0.0,0.0,96,0.05,,,0.05,Wunderground v.1.15,2013-04-22 06:45:00,
2013-04-22 02:50:00,68.2,67.0,30.01,North,360,0.0,0.0,96,0.05,,,0.05,Wunderground v.1.15,2013-04-22 06:50:00,
2013-04-22 02:55:00,68.2,67.0,30.01,North,360,0.0,0.0,96,0.05,,,0.05,Wunderground v.1.15,2013-04-22 06:55:00,
2013-04-22 03:05:00,68.1,66.9,30.00,North,360,0.0,0.0,96,0.04,,,0.06,Wunderground v.1.15,2013-04-22 07:05:00,
2013-04-22 03:15:00,68.0,66.8,30.00,North,360,0.0,0.0,96,0.05,,,0.07,Wunderground v.1.15,2013-04-22 07:15:00,
2013-04-22 03:20:00,67.9,66.7,30.00,North,360,0.0,0.0,96,0.05,,,0.08,Wunderground v.1.15,2013-04-22 07:20:00,
2013-04-22 03:25:00,67.9,66.7,29.99,North,360,0.0,0.0,96,0.06,,,0.08,Wunderground v.1.15,2013-04-22 07:25:00,
2013-04-22 03:35:00,67.8,66.6,29.99,North,360,0.0,0.0,96,0.04,,,0.08,Wunderground v.1.15,2013-04-22 07:35:00,
2013-04-22 03:45:00,67.7,66.5,29.99,North,360,0.0,0.0,96,0.00,,,0.08,Wunderground v.1.15,2013-04-22 07:45:00,
2013-04-22 03:50:00,67.7,66.5,29.99,North,360,0.0,0.0,96,0.00,,,0.08,Wunderground v.1.15,2013-04-22 07:50:00,
2013-04-22 03:55:00,67.8,66.6,29.99,North,360,0.0,0.0,96,0.00,,,0.08,Wunderground v.1.15,2013-04-22 07:55:00,
2013-04-22 04:00:00,67.8,66.6,29.99,North,360,0.0,0.0,96,0.00,,,0.08,Wunderground v.1.15,2013-04-22 08:00:00,
2013-04-22 04:05:00,67.8,66.6,29.99,North,360,1.0,2.0,96,0.00,,,0.08,Wunderground v.1.15,2013-04-22 08:05:00,
2013-04-22 04:10:00,67.8,66.6,29.99,North,360,1.0,1.0,96,0.00,,,0.09,Wunderground v.1.15,2013-04-22 08:10:00,
2013-04-22 04:15:00,67.8,66.6,29.99,North,360,0.0,1.0,96,0.00,,,0.09,Wunderground v.1.15,2013-04-22 08:15:00,
2013-04-22 04:20:00,67.7,66.5,29.99,North,360,0.0,0.0,96,0.00,,,0.09,Wunderground v.1.15,2013-04-22 08:20:00,
2013-04-22 04:25:00,67.7,66.5,29.98,North,360,0.0,0.0,96,0.00,,,0.09,Wunderground v.1.15,2013-04-22 08:25:00,
2013-04-22 04:30:00,67.7,66.5,29.97,North,360,0.0,0.0,96,0.00,,,0.09,Wunderground v.1.15,2013-04-22 08:30:00,
2013-04-22 04:35:00,67.7,66.5,29.97,North,360,0.0,0.0,96,0.00,,,0.09,Wunderground v.1.15,2013-04-22 08:35:00,
2013-04-22 04:40:00,67.6,66.4,29.97,North,360,0.0,0.0,96,0.00,,,0.09,Wunderground v.1.15,2013-04-22 08:40:00,
2013-04-22 04:45:00,67.6,66.4,29.97,North,360,0.0,0.0,96,0.00,,,0.09,Wunderground v.1.15,2013-04-22 08:45:00,
2013-04-22 04:50:00,67.6,66.4,29.97,North,360,0.0,0.0,96,0.00,,,0.09,Wunderground v.1.15,2013-04-22 08:50:00,
2013-04-22 04:55:00,67.5,66.3,29.97,North,360,0.0,0.0,96,0.00,,,0.09,Wunderground v.1.15,2013-04-22 08:55:00,
2013-04-22 05:00:00,67.6,66.4,29.97,North,360,0.0,0.0,96,0.00,,,0.09,Wunderground v.1.15,2013-04-22 09:00:00,
2013-04-22 05:05:00,67.6,66.4,29.97,North,360,0.0,0.0,96,0.00,,,0.09,Wunderground v.1.15,2013-04-22 09:05:00,
2013-04-22 05:10:00,67.6,66.4,29.97,North,360,0.0,0.0,96,0.00,,,0.09,Wunderground v.1.15,2013-04-22 09:10:00,
2013-04-22 05:15:00,67.7,66.5,29.97,North,360,0.0,0.0,96,0.00,,,0.09,Wunderground v.1.15,2013-04-22 09:15:00,
2013-04-22 05:20:00,67.7,66.5,29.97,North,360,0.0,0.0,96,0.00,,,0.09,Wunderground v.1.15,2013-04-22 09:20:00,
2013-04-22 05:25:00,67.7,66.5,29.97,North,360,0.0,0.0,96,0.00,,,0.09,Wunderground v.1.15,2013-04-22 09:25:00,
2013-04-22 05:35:00,67.8,66.6,29.97,North,360,0.0,0.0,96,0.00,,,0.09,Wunderground v.1.15,2013-04-22 09:35:00,
2013-04-22 05:40:00,67.9,66.7,29.97,North,360,0.0,0.0,96,0.00,,,0.09,Wunderground v.1.15,2013-04-22 09:40:00,
2013-04-22 05:45:00,67.9,66.7,29.97,North,360,0.0,0.0,96,0.00,,,0.09,Wunderground v.1.15,2013-04-22 09:45:00,
2013-04-22 05:50:00,68.0,66.8,29.97,North,360,1.0,3.0,96,0.00,,,0.09,Wunderground v.1.15,2013-04-22 09:50:00,
2013-04-22 05:55:00,68.2,67.0,29.96,North,360,2.0,3.0,96,0.00,,,0.09,Wunderground v.1.15,2013-04-22 09:55:00,
2013-04-22 06:00:00,68.3,67.1,29.97,North,360,3.0,3.0,96,0.00,,,0.09,Wunderground v.1.15,2013-04-22 10:00:00,
2013-04-22 06:05:00,68.3,67.1,29.97,North,360,3.0,3.0,96,0.00,,,0.09,Wunderground v.1.15,2013-04-22 10:05:00,
2013-04-22 06:10:00,68.4,67.2,29.98,North,360,3.0,4.0,96,0.00,,,0.09,Wunderground v.1.15,2013-04-22 10:10:00,
2013-04-22 06:15:00,68.4,67.2,29.98,North,360,2.0,4.0,96,0.00,,,0.09,Wunderground v.1.15,2013-04-22 10:15:00,
2013-04-22 06:20:00,68.4,67.2,29.98,North,360,2.0,3.0,96,0.00,,,0.09,Wunderground v.1.15,2013-04-22 10:20:00,
2013-04-22 06:25:00,68.4,67.2,29.98,North,360,2.0,5.0,96,0.00,,,0.09,Wunderground v.1.15,2013-04-22 10:25:00,
2013-04-22 06:30:00,68.3,67.1,29.98,North,360,4.0,6.0,96,0.00,,,0.09,Wunderground v.1.15,2013-04-22 10:30:00,
2013-04-22 06:35:00,68.2,67.0,29.98,North,360,4.0,6.0,96,0.00,,,0.09,Wunderground v.1.15,2013-04-22 10:35:00,
2013-04-22 06:40:00,68.2,67.0,29.98,North,360,2.0,2.0,96,0.00,,,0.09,Wunderground v.1.15,2013-04-22 10:40:00,
2013-04-22 06:45:00,68.1,66.9,29.98,North,360,2.0,2.0,96,0.00,,,0.09,Wunderground v.1.15,2013-04-22 10:45:00,
2013-04-22 06:50:00,68.0,66.8,29.98,North,360,2.0,2.0,96,0.00,,,0.09,Wunderground v.1.15,2013-04-22 10:50:00,
2013-04-22 07:00:00,68.0,66.8,29.99,North,360,2.0,4.0,96,0.00,,,0.09,Wunderground v.1.15,2013-04-22 11:00:00,
2013-04-22 07:05:00,68.0,66.8,29.99,North,360,2.0,4.0,96,0.00,,,0.09,Wunderground v.1.15,2013-04-22 11:05:00,
2013-04-22 07:10:00,68.0,66.8,29.99,North,360,2.0,2.0,96,0.00,,,0.09,Wunderground v.1.15,2013-04-22 11:10:00,
2013-04-22 07:15:00,68.0,66.8,29.99,North,360,3.0,3.0,96,0.00,,,0.09,Wunderground v.1.15,2013-04-22 11:15:00,
2013-04-22 07:20:00,68.0,66.8,29.99,North,360,3.0,4.0,96,0.00,,,0.09,Wunderground v.1.15,2013-04-22 11:20:00,
2013-04-22 07:25:00,67.9,66.7,29.99,North,360,2.0,4.0,96,0.00,,,0.09,Wunderground v.1.15,2013-04-22 11:25:00,
2013-04-22 07:30:00,67.9,66.7,30.00,North,355,2.0,2.0,96,0.00,,,0.09,Wunderground v.1.15,2013-04-22 11:30:00,
2013-04-22 07:35:00,67.9,66.7,30.00,North,355,2.0,2.0,96,0.00,,,0.09,Wunderground v.1.15,2013-04-22 11:35:00,
2013-04-22 07:40:00,67.9,66.7,30.00,North,355,2.0,2.0,96,0.00,,,0.09,Wunderground v.1.15,2013-04-22 11:40:00,
2013-04-22 07:45:00,68.0,66.8,30.00,North,355,2.0,2.0,96,0.00,,,0.09,Wunderground v.1.15,2013-04-22 11:45:00,
2013-04-22 07:50:00,68.0,66.8,30.00,North,355,2.0,2.0,96,0.00,,,0.09,Wunderground v.1.15,2013-04-22 11:50:00,
2013-04-22 07:55:00,68.1,66.9,30.00,North,355,3.0,3.0,96,0.00,,,0.09,Wunderground v.1.15,2013-04-22 11:55:00,
2013-04-22 08:00:00,68.2,67.0,30.00,NNW,348,3.0,6.0,96,0.00,,,0.09,Wunderground v.1.15,2013-04-22 12:00:00,
2013-04-22 08:05:00,68.3,67.1,30.00,NNW,348,3.0,6.0,96,0.00,,,0.09,Wunderground v.1.15,2013-04-22 12:05:00,
2013-04-22 08:10:00,68.5,67.3,30.00,NNW,346,3.0,4.0,96,0.00,,,0.09,Wunderground v.1.15,2013-04-22 12:10:00,
2013-04-22 08:15:00,68.6,67.4,30.00,NNW,345,3.0,4.0,96,0.00,,,0.09,Wunderground v.1.15,2013-04-22 12:15:00,
2013-04-22 08:20:00,68.4,67.2,30.00,NNW,345,3.0,3.0,96,0.00,,,0.09,Wunderground v.1.15,2013-04-22 12:20:00,
2013-04-22 08:25:00,68.4,67.2,30.00,North,350,3.0,3.0,96,0.00,,,0.09,Wunderground v.1.15,2013-04-22 12:25:00,
2013-04-22 08:30:00,68.4,67.2,30.00,NNW,336,3.0,4.0,96,0.00,,,0.09,Wunderground v.1.15,2013-04-22 12:30:00,
2013-04-22 08:35:00,68.4,67.2,30.00,NNW,340,3.0,4.0,96,0.00,,,0.09,Wunderground v.1.15,2013-04-22 12:35:00,
2013-04-22 08:40:00,68.5,67.3,30.00,NNW,340,3.0,5.0,96,0.00,,,0.09,Wunderground v.1.15,2013-04-22 12:40:00,
2013-04-22 08:45:00,68.5,67.3,30.00,NNW,333,4.0,5.0,96,0.00,,,0.09,Wunderground v.1.15,2013-04-22 12:45:00,
2013-04-22 08:50:00,68.5,67.3,30.00,NNW,327,4.0,4.0,96,0.00,,,0.09,Wunderground v.1.15,2013-04-22 12:50:00,
2013-04-22 08:55:00,68.3,67.1,30.00,NNW,332,4.0,4.0,96,0.00,,,0.09,Wunderground v.1.15,2013-04-22 12:55:00,
2013-04-22 09:00:00,68.2,67.0,30.01,NNW,333,4.0,4.0,96,0.00,,,0.09,Wunderground v.1.15,2013-04-22 13:00:00,
2013-04-22 09:05:00,68.3,67.1,30.01,NNW,342,4.0,4.0,96,0.00,,,0.09,Wunderground v.1.15,2013-04-22 13:05:00,
2013-04-22 09:10:00,68.5,67.3,30.01,NNW,342,4.0,5.0,96,0.00,,,0.09,Wunderground v.1.15,2013-04-22 13:10:00,
2013-04-22 09:15:00,68.6,67.4,30.01,NNW,329,4.0,5.0,96,0.00,,,0.09,Wunderground v.1.15,2013-04-22 13:15:00,
2013-04-22 09:20:00,68.5,67.3,30.02,NNW,336,4.0,4.0,96,0.00,,,0.09,Wunderground v.1.15,2013-04-22 13:20:00,
2013-04-22 09:25:00,68.6,67.4,30.02,NNW,338,5.0,5.0,96,0.00,,,0.09,Wunderground v.1.15,2013-04-22 13:25:00,
2013-04-22 09:30:00,69.0,67.8,30.01,North,355,5.0,5.0,96,0.00,,,0.09,Wunderground v.1.15,2013-04-22 13:30:00,
2013-04-22 09:35:00,69.4,68.2,30.01,NNW,338,4.0,7.0,96,0.00,,,0.09,Wunderground v.1.15,2013-04-22 13:35:00,
2013-04-22 09:40:00,69.6,68.4,30.02,NNW,338,4.0,4.0,96,0.00,,,0.09,Wunderground v.1.15,2013-04-22 13:40:00,
2013-04-22 09:45:00,69.8,68.6,30.02,NNW,336,4.0,4.0,96,0.00,,,0.09,Wunderground v.1.15,2013-04-22 13:45:00,
2013-04-22 09:50:00,70.4,69.2,30.02,NNW,334,4.0,4.0,96,0.00,,,0.09,Wunderground v.1.15,2013-04-22 13:50:00,
2013-04-22 09:55:00,70.9,69.7,30.02,NNW,336,3.0,4.0,96,0.00,,,0.09,Wunderground v.1.15,2013-04-22 13:55:00,
2013-04-22 10:00:00,71.3,70.1,30.02,NNW,334,2.0,3.0,96,0.00,,,0.09,Wunderground v.1.15,2013-04-22 14:00:00,
2013-04-22 10:05:00,71.5,70.3,30.03,NNW,335,2.0,3.0,96,0.00,,,0.09,Wunderground v.1.15,2013-04-22 14:05:00,
2013-04-22 10:10:00,71.7,70.5,30.03,NNW,336,2.0,2.0,96,0.00,,,0.09,Wunderground v.1.15,2013-04-22 14:10:00,
2013-04-22 10:15:00,71.9,70.4,30.03,NNW,340,2.0,5.0,95,0.00,,,0.09,Wunderground v.1.15,2013-04-22 14:15:00,
2013-04-22 10:25:00,71.8,70.3,30.03,NNW,342,4.0,4.0,95,0.00,,,0.09,Wunderground v.1.15,2013-04-22 14:25:00,
2013-04-22 10:30:00,72.0,70.5,30.04,NNW,337,4.0,5.0,95,0.00,,,0.09,Wunderground v.1.15,2013-04-22 14:30:00,
2013-04-22 10:35:00,71.9,70.1,30.04,NNW,346,4.0,5.0,94,0.00,,,0.09,Wunderground v.1.15,2013-04-22 14:35:00,
2013-04-22 10:40:00,72.1,70.3,30.04,NNW,340,4.0,4.0,94,0.00,,,0.09,Wunderground v.1.15,2013-04-22 14:40:00,
2013-04-22 10:45:00,72.3,70.5,30.04,NNW,337,3.0,4.0,94,0.00,,,0.09,Wunderground v.1.15,2013-04-22 14:45:00,
2013-04-22 10:50:00,72.4,70.6,30.05,NNW,337,2.0,2.0,94,0.00,,,0.09,Wunderground v.1.15,2013-04-22 14:50:00,
2013-04-22 10:55:00,72.2,70.4,30.05,NNW,338,2.0,4.0,94,0.00,,,0.09,Wunderground v.1.15,2013-04-22 14:55:00,
2013-04-22 11:00:00,71.8,69.7,30.05,NNW,336,2.0,2.0,93,0.00,,,0.09,Wunderground v.1.15,2013-04-22 15:00:00,
2013-04-22 11:05:00,71.5,69.7,30.05,NNW,336,1.0,2.0,94,0.00,,,0.09,Wunderground v.1.15,2013-04-22 15:05:00,
2013-04-22 11:15:00,71.4,69.6,30.06,NNW,336,1.0,2.0,94,0.00,,,0.09,Wunderground v.1.15,2013-04-22 15:15:00,
2013-04-22 11:20:00,71.3,69.2,30.06,NNW,338,2.0,4.0,93,0.00,,,0.09,Wunderground v.1.15,2013-04-22 15:20:00,
2013-04-22 11:25:00,70.9,68.5,30.06,NNW,345,3.0,4.0,92,0.00,,,0.09,Wunderground v.1.15,2013-04-22 15:25:00,
2013-04-22 11:30:00,70.8,68.7,30.05,NNW,348,4.0,4.0,93,0.00,,,0.09,Wunderground v.1.15,2013-04-22 15:30:00,
2013-04-22 11:35:00,70.7,68.3,30.06,North,5,4.0,4.0,92,0.00,,,0.09,Wunderground v.1.15,2013-04-22 15:35:00,
2013-04-22 11:40:00,70.8,68.7,30.06,North,5,4.0,4.0,93,0.00,,,0.09,Wunderground v.1.15,2013-04-22 15:40:00,
2013-04-22 11:45:00,71.2,69.1,30.06,North,355,3.0,8.0,93,0.00,,,0.09,Wunderground v.1.15,2013-04-22 15:45:00,
2013-04-22 11:50:00,71.6,69.5,30.06,NNW,337,4.0,4.0,93,0.00,,,0.09,Wunderground v.1.15,2013-04-22 15:50:00,
2013-04-22 11:55:00,72.1,70.0,30.05,NNW,338,4.0,4.0,93,0.00,,,0.09,Wunderground v.1.15,2013-04-22 15:55:00,
2013-04-22 12:05:00,72.5,70.0,30.05,NNW,338,3.0,5.0,92,0.00,,,0.09,Wunderground v.1.15,2013-04-22 16:05:00,
2013-04-22 12:10:00,72.5,69.4,30.05,NNW,346,4.0,5.0,90,0.00,,,0.09,Wunderground v.1.15,2013-04-22 16:10:00,
2013-04-22 12:15:00,72.4,69.6,30.05,NNW,346,4.0,5.0,91,0.00,,,0.09,Wunderground v.1.15,2013-04-22 16:15:00,
2013-04-22 12:25:00,72.9,70.1,30.04,NNW,344,3.0,4.0,91,0.00,,,0.09,Wunderground v.1.15,2013-04-22 16:25:00,
2013-04-22 12:30:00,73.0,70.2,30.04,NNW,346,3.0,4.0,91,0.00,,,0.09,Wunderground v.1.15,2013-04-22 16:30:00,
2013-04-22 12:35:00,72.8,69.7,30.04,NNW,346,3.0,4.0,90,0.00,,,0.09,Wunderground v.1.15,2013-04-22 16:35:00,
2013-04-22 12:40:00,72.8,69.7,30.04,NNW,345,3.0,3.0,90,0.00,,,0.09,Wunderground v.1.15,2013-04-22 16:40:00,
2013-04-22 12:45:00,72.7,69.6,30.04,NNW,345,2.0,4.0,90,0.00,,,0.09,Wunderground v.1.15,2013-04-22 16:45:00,
2013-04-22 13:00:00,72.6,69.2,30.03,North,360,4.0,4.0,89,0.00,,,0.09,Wunderground v.1.15,2013-04-22 17:00:00,
2013-04-22 13:05:00,73.1,70.0,30.03,North,360,4.0,5.0,90,0.00,,,0.09,Wunderground v.1.15,2013-04-22 17:05:00,
2013-04-22 13:10:00,73.4,70.0,30.03,North,360,4.0,4.0,89,0.00,,,0.09,Wunderground v.1.15,2013-04-22 17:10:00,
2013-04-22 13:15:00,74.4,70.9,30.03,NNE,21,4.0,4.0,89,0.00,,,0.09,Wunderground v.1.15,2013-04-22 17:15:00,
2013-04-22 13:20:00,74.4,70.3,30.02,North,355,4.0,4.0,87,0.00,,,0.09,Wunderground v.1.15,2013-04-22 17:20:00,
2013-04-22 13:25:00,74.7,70.6,30.02,North,355,4.0,4.0,87,0.00,,,0.09,Wunderground v.1.15,2013-04-22 17:25:00,
2013-04-22 13:30:00,74.8,70.7,30.02,North,360,4.0,5.0,87,0.00,,,0.09,Wunderground v.1.15,2013-04-22 17:30:00,
2013-04-22 13:35:00,74.9,70.4,30.02,North,360,4.0,5.0,86,0.00,,,0.09,Wunderground v.1.15,2013-04-22 17:35:00,
2013-04-22 13:40:00,75.0,70.5,30.01,North,360,4.0,4.0,86,0.00,,,0.09,Wunderground v.1.15,2013-04-22 17:40:00,
2013-04-22 13:55:00,75.0,70.5,30.01,North,355,4.0,4.0,86,0.00,,,0.09,Wunderground v.1.15,2013-04-22 17:55:00,
2013-04-22 14:00:00,75.0,70.2,30.01,North,355,4.0,4.0,85,0.00,,,0.09,Wunderground v.1.15,2013-04-22 18:00:00,
2013-04-22 14:05:00,75.0,70.2,30.01,North,5,5.0,8.0,85,0.00,,,0.09,Wunderground v.1.15,2013-04-22 18:05:00,
2013-04-22 14:10:00,75.2,70.4,30.00,North,360,5.0,5.0,85,0.00,,,0.09,Wunderground v.1.15,2013-04-22 18:10:00,
2013-04-22 14:15:00,75.7,70.9,30.00,North,360,4.0,5.0,85,0.00,,,0.09,Wunderground v.1.15,2013-04-22 18:15:00,
2013-04-22 14:20:00,76.1,70.6,30.00,North,360,5.0,6.0,83,0.00,,,0.09,Wunderground v.1.15,2013-04-22 18:20:00,
2013-04-22 14:25:00,76.7,71.5,30.00,North,360,6.0,6.0,84,0.00,,,0.09,Wunderground v.1.15,2013-04-22 18:25:00,
2013-04-22 14:30:00,77.8,72.2,30.00,NNW,348,5.0,5.0,83,0.00,,,0.09,Wunderground v.1.15,2013-04-22 18:30:00,
2013-04-22 14:35:00,78.1,71.4,29.99,North,349,5.0,5.0,80,0.00,,,0.09,Wunderground v.1.15,2013-04-22 18:35:00,
2013-04-22 14:40:00,77.7,71.0,29.99,North,355,5.0,5.0,80,0.00,,,0.09,Wunderground v.1.15,2013-04-22 18:40:00,
2013-04-22 14:45:00,77.2,70.5,29.99,North,10,5.0,7.0,80,0.00,,,0.09,Wunderground v.1.15,2013-04-22 18:45:00,
2013-04-22 14:55:00,77.5,71.2,29.99,North,5,6.0,6.0,81,0.00,,,0.09,Wunderground v.1.15,2013-04-22 18:55:00,
2013-04-22 15:00:00,77.6,70.6,29.99,North,360,6.0,8.0,79,0.00,,,0.09,Wunderground v.1.15,2013-04-22 19:00:00,
2013-04-22 15:05:00,77.9,70.9,29.98,North,360,6.0,8.0,79,0.00,,,0.09,Wunderground v.1.15,2013-04-22 19:05:00,
2013-04-22 15:10:00,78.1,70.3,29.98,NNE,22,5.0,5.0,77,0.00,,,0.09,Wunderground v.1.15,2013-04-22 19:10:00,
2013-04-22 15:15:00,78.2,70.8,29.98,NNE,22,6.0,6.0,78,0.00,,,0.09,Wunderground v.1.15,2013-04-22 19:15:00,
2013-04-22 15:20:00,78.1,69.9,29.98,NE,45,5.0,5.0,76,0.00,,,0.09,Wunderground v.1.15,2013-04-22 19:20:00,
2013-04-22 15:25:00,77.8,70.0,29.97,NE,40,4.0,12.0,77,0.00,,,0.09,Wunderground v.1.15,2013-04-22 19:25:00,
2013-04-22 15:30:00,77.9,70.1,29.97,NE,35,4.0,4.0,77,0.00,,,0.09,Wunderground v.1.15,2013-04-22 19:30:00,
2013-04-22 15:35:00,78.0,69.8,29.97,NNE,13,5.0,10.0,76,0.00,,,0.09,Wunderground v.1.15,2013-04-22 19:35:00,
2013-04-22 15:40:00,77.5,69.3,29.97,NNE,26,7.0,9.0,76,0.00,,,0.09,Wunderground v.1.15,2013-04-22 19:40:00,
2013-04-22 15:45:00,77.2,69.0,29.97,NNE,25,6.0,9.0,76,0.00,,,0.09,Wunderground v.1.15,2013-04-22 19:45:00,
2013-04-22 15:50:00,77.2,69.0,29.97,NNE,27,4.0,4.0,76,0.00,,,0.09,Wunderground v.1.15,2013-04-22 19:50:00,
2013-04-22 15:55:00,77.1,68.9,29.96,NNE,17,4.0,6.0,76,0.00,,,0.09,Wunderground v.1.15,2013-04-22 19:55:00,
2013-04-22 16:00:00,77.1,69.3,29.96,NNE,21,5.0,5.0,77,0.00,,,0.09,Wunderground v.1.15,2013-04-22 20:00:00,
2013-04-22 16:05:00,77.2,69.4,29.96,NNE,14,5.0,7.0,77,0.00,,,0.09,Wunderground v.1.15,2013-04-22 20:05:00,
2013-04-22 16:15:00,77.4,69.6,29.96,North,11,5.0,7.0,77,0.00,,,0.09,Wunderground v.1.15,2013-04-22 20:15:00,
2013-04-22 16:20:00,77.3,69.1,29.95,North,11,5.0,5.0,76,0.00,,,0.09,Wunderground v.1.15,2013-04-22 20:20:00,
2013-04-22 16:25:00,77.1,69.3,29.95,North,5,5.0,5.0,77,0.00,,,0.09,Wunderground v.1.15,2013-04-22 20:25:00,
2013-04-22 16:35:00,76.4,69.8,29.95,North,355,4.0,4.0,80,0.00,,,0.09,Wunderground v.1.15,2013-04-22 20:35:00,
2013-04-22 16:40:00,76.4,69.8,29.95,North,360,4.0,8.0,80,0.00,,,0.09,Wunderground v.1.15,2013-04-22 20:40:00,
2013-04-22 16:45:00,76.5,69.9,29.95,North,355,7.0,10.0,80,0.00,,,0.09,Wunderground v.1.15,2013-04-22 20:45:00,
2013-04-22 16:50:00,76.1,68.4,29.96,NNE,14,9.0,9.0,77,0.00,,,0.09,Wunderground v.1.15,2013-04-22 20:50:00,
2013-04-22 16:55:00,75.4,67.3,29.96,North,5,9.0,9.0,76,0.00,,,0.09,Wunderground v.1.15,2013-04-22 20:55:00,
2013-04-22 17:00:00,75.3,67.6,29.96,North,11,9.0,9.0,77,0.00,,,0.09,Wunderground v.1.15,2013-04-22 21:00:00,
2013-04-22 17:05:00,75.3,68.0,29.97,NNW,331,8.0,10.0,78,0.00,,,0.09,Wunderground v.1.15,2013-04-22 21:05:00,
2013-04-22 17:10:00,74.6,67.7,29.97,NNW,330,7.0,7.0,79,0.00,,,0.09,Wunderground v.1.15,2013-04-22 21:10:00,
2013-04-22 17:15:00,73.5,67.3,29.97,NNW,335,6.0,7.0,81,0.00,,,0.09,Wunderground v.1.15,2013-04-22 21:15:00,
2013-04-22 17:20:00,72.8,67.7,29.97,NNW,340,4.0,4.0,84,0.00,,,0.09,Wunderground v.1.15,2013-04-22 21:20:00,
2013-04-22 17:30:00,72.4,68.6,29.97,North,355,3.0,3.0,88,0.00,,,0.09,Wunderground v.1.15,2013-04-22 21:30:00,
2013-04-22 17:35:00,73.0,69.2,29.97,NNW,336,4.0,4.0,88,0.00,,,0.09,Wunderground v.1.15,2013-04-22 21:35:00,
2013-04-22 17:40:00,73.1,69.3,29.97,NNW,340,4.0,4.0,88,0.00,,,0.09,Wunderground v.1.15,2013-04-22 21:40:00,
2013-04-22 17:45:00,73.1,69.3,29.97,NNW,329,4.0,4.0,88,0.00,,,0.09,Wunderground v.1.15,2013-04-22 21:45:00,
2013-04-22 17:50:00,73.1,69.7,29.97,NNW,334,3.0,5.0,89,0.00,,,0.09,Wunderground v.1.15,2013-04-22 21:50:00,
2013-04-22 17:55:00,72.9,69.1,29.97,NNW,348,4.0,5.0,88,0.00,,,0.09,Wunderground v.1.15,2013-04-22 21:55:00,
2013-04-22 18:00:00,72.7,68.9,29.97,North,360,4.0,4.0,88,0.00,,,0.09,Wunderground v.1.15,2013-04-22 22:00:00,
2013-04-22 18:05:00,72.2,68.4,29.98,NNE,16,6.0,6.0,88,0.00,,,0.09,Wunderground v.1.15,2013-04-22 22:05:00,
2013-04-22 18:10:00,72.1,68.3,29.97,North,9,7.0,7.0,88,0.00,,,0.09,Wunderground v.1.15,2013-04-22 22:10:00,
2013-04-22 18:15:00,72.1,68.0,29.98,North,360,7.0,7.0,87,0.00,,,0.09,Wunderground v.1.15,2013-04-22 22:15:00,
2013-04-22 18:20:00,71.9,67.5,29.98,North,5,8.0,8.0,86,0.00,,,0.09,Wunderground v.1.15,2013-04-22 22:20:00,
2013-04-22 18:25:00,71.9,67.5,29.98,North,360,9.0,9.0,86,0.00,,,0.09,Wunderground v.1.15,2013-04-22 22:25:00,
2013-04-22 18:35:00,71.6,67.5,29.98,North,360,7.0,10.0,87,0.00,,,0.09,Wunderground v.1.15,2013-04-22 22:35:00,
2013-04-22 18:40:00,71.5,67.4,29.98,North,10,7.0,7.0,87,0.00,,,0.09,Wunderground v.1.15,2013-04-22 22:40:00,
2013-04-22 18:45:00,71.7,67.6,29.98,North,360,6.0,7.0,87,0.00,,,0.09,Wunderground v.1.15,2013-04-22 22:45:00,
2013-04-22 18:50:00,71.5,67.4,29.98,North,360,4.0,4.0,87,0.00,,,0.09,Wunderground v.1.15,2013-04-22 22:50:00,
2013-04-22 18:55:00,71.2,67.1,29.98,NNE,18,6.0,7.0,87,0.00,,,0.09,Wunderground v.1.15,2013-04-22 22:55:00,
2013-04-22 19:00:00,70.7,67.0,29.99,NNW,348,7.0,7.0,88,0.00,,,0.09,Wunderground v.1.15,2013-04-22 23:00:00,
2013-04-22 19:05:00,70.5,67.1,29.99,North,360,7.0,7.0,89,0.00,,,0.09,Wunderground v.1.15,2013-04-22 23:05:00,
2013-04-22 19:10:00,70.4,67.0,29.98,North,5,7.0,9.0,89,0.00,,,0.09,Wunderground v.1.15,2013-04-22 23:10:00,
2013-04-22 19:15:00,70.2,66.8,29.98,North,5,8.0,9.0,89,0.00,,,0.09,Wunderground v.1.15,2013-04-22 23:15:00,
2013-04-22 19:20:00,70.0,66.6,29.99,NNW,343,8.0,8.0,89,0.00,,,0.09,Wunderground v.1.15,2013-04-22 23:20:00,
2013-04-22 19:25:00,69.8,66.4,29.99,North,360,7.0,12.0,89,0.00,,,0.09,Wunderground v.1.15,2013-04-22 23:25:00,
2013-04-22 19:30:00,69.5,66.1,29.99,North,9,8.0,8.0,89,0.00,,,0.09,Wunderground v.1.15,2013-04-22 23:30:00,
2013-04-22 19:35:00,69.4,66.0,29.99,North,5,8.0,9.0,89,0.00,,,0.09,Wunderground v.1.15,2013-04-22 23:35:00,
2013-04-22 19:40:00,69.0,65.6,29.99,North,5,9.0,9.0,89,0.00,,,0.09,Wunderground v.1.15,2013-04-22 23:40:00,
2013-04-22 19:45:00,68.7,65.3,29.99,North,360,10.0,10.0,89,0.00,,,0.09,Wunderground v.1.15,2013-04-22 23:45:00,
2013-04-22 19:50:00,68.5,65.4,29.99,North,5,8.0,10.0,90,0.00,,,0.09,Wunderground v.1.15,2013-04-22 23:50:00,
2013-04-22 19:55:00,68.3,65.3,30.00,North,360,8.0,10.0,90,0.00,,,0.09,Wunderground v.1.15,2013-04-22 23:55:00,
2013-04-22 20:00:00,68.1,64.7,30.00,North,360,9.0,9.0,89,0.00,,,0.09,Wunderground v.1.15,2013-04-23 00:00:00,
2013-04-22 20:05:00,68.0,65.0,30.00,North,360,8.0,9.0,90,0.00,,,0.09,Wunderground v.1.15,2013-04-23 00:05:00,
2013-04-22 20:10:00,68.0,65.0,30.00,North,9,7.0,7.0,90,0.00,,,0.09,Wunderground v.1.15,2013-04-23 00:10:00,
2013-04-22 20:15:00,68.0,65.0,30.01,North,9,7.0,7.0,90,0.00,,,0.09,Wunderground v.1.15,2013-04-23 00:15:00,
2013-04-22 20:20:00,67.9,64.9,30.01,NNE,25,7.0,7.0,90,0.00,,,0.09,Wunderground v.1.15,2013-04-23 00:20:00,
2013-04-22 20:25:00,67.9,65.2,30.01,NNE,17,6.0,7.0,91,0.00,,,0.09,Wunderground v.1.15,2013-04-23 00:25:00,
2013-04-22 20:30:00,67.7,64.7,30.01,North,360,6.0,7.0,90,0.00,,,0.09,Wunderground v.1.15,2013-04-23 00:30:00,
2013-04-22 20:35:00,67.6,64.9,30.02,North,9,7.0,7.0,91,0.00,,,0.09,Wunderground v.1.15,2013-04-23 00:35:00,
2013-04-22 20:40:00,67.4,64.7,30.02,North,360,6.0,6.0,91,0.00,,,0.09,Wunderground v.1.15,2013-04-23 00:40:00,
2013-04-22 20:45:00,67.2,64.5,30.02,North,360,6.0,6.0,91,0.00,,,0.09,Wunderground v.1.15,2013-04-23 00:45:00,
2013-04-22 20:50:00,67.1,64.4,30.03,NNE,12,7.0,7.0,91,0.00,,,0.09,Wunderground v.1.15,2013-04-23 00:50:00,
2013-04-22 20:55:00,67.0,64.3,30.02,North,360,8.0,8.0,91,0.00,,,0.09,Wunderground v.1.15,2013-04-23 00:55:00,
2013-04-22 21:00:00,66.9,64.2,30.02,North,5,7.0,10.0,91,0.00,,,0.09,Wunderground v.1.15,2013-04-23 01:00:00,
2013-04-22 21:05:00,66.9,64.5,30.03,NNE,22,6.0,12.0,92,0.00,,,0.09,Wunderground v.1.15,2013-04-23 01:05:00,
2013-04-22 21:10:00,66.9,64.2,30.03,NNE,19,7.0,10.0,91,0.00,,,0.09,Wunderground v.1.15,2013-04-23 01:10:00,
2013-04-22 21:20:00,66.8,64.1,30.03,North,360,7.0,7.0,91,0.00,,,0.09,Wunderground v.1.15,2013-04-23 01:20:00,
2013-04-22 21:25:00,66.8,64.1,30.03,North,360,6.0,7.0,91,0.00,,,0.09,Wunderground v.1.15,2013-04-23 01:25:00,
2013-04-22 21:30:00,66.7,64.0,30.04,North,5,5.0,5.0,91,0.00,,,0.09,Wunderground v.1.15,2013-04-23 01:30:00,
2013-04-22 21:35:00,66.7,64.3,30.04,NNW,336,5.0,5.0,92,0.00,,,0.09,Wunderground v.1.15,2013-04-23 01:35:00,
2013-04-22 21:40:00,66.6,64.2,30.04,North,360,5.0,5.0,92,0.00,,,0.09,Wunderground v.1.15,2013-04-23 01:40:00,
2013-04-22 21:45:00,66.5,64.1,30.04,North,355,4.0,6.0,92,0.00,,,0.09,Wunderground v.1.15,2013-04-23 01:45:00,
2013-04-22 21:50:00,66.3,63.9,30.05,North,360,4.0,7.0,92,0.00,,,0.09,Wunderground v.1.15,2013-04-23 01:50:00,
2013-04-22 21:55:00,66.2,63.8,30.05,North,360,4.0,10.0,92,0.00,,,0.09,Wunderground v.1.15,2013-04-23 01:55:00,
2013-04-22 22:00:00,66.1,63.7,30.05,North,349,5.0,5.0,92,0.00,,,0.09,Wunderground v.1.15,2013-04-23 02:00:00,
2013-04-22 22:05:00,66.1,64.0,30.06,North,5,5.0,5.0,93,0.00,,,0.09,Wunderground v.1.15,2013-04-23 02:05:00,
2013-04-22 22:15:00,65.8,63.7,30.05,North,360,4.0,10.0,93,0.00,,,0.09,Wunderground v.1.15,2013-04-23 02:15:00,
2013-04-22 22:20:00,65.7,63.6,30.06,North,360,5.0,5.0,93,0.00,,,0.09,Wunderground v.1.15,2013-04-23 02:20:00,
2013-04-22 22:25:00,65.6,63.5,30.05,North,355,6.0,6.0,93,0.00,,,0.09,Wunderground v.1.15,2013-04-23 02:25:00,
2013-04-22 22:30:00,65.6,63.5,30.05,North,360,5.0,5.0,93,0.00,,,0.09,Wunderground v.1.15,2013-04-23 02:30:00,
2013-04-22 22:35:00,65.5,63.4,30.05,North,360,5.0,5.0,93,0.00,,,0.09,Wunderground v.1.15,2013-04-23 02:35:00,
2013-04-22 22:40:00,65.5,63.4,30.05,North,5,5.0,5.0,93,0.00,,,0.09,Wunderground v.1.15,2013-04-23 02:40:00,
2013-04-22 22:45:00,65.6,63.5,30.05,North,5,4.0,5.0,93,0.00,,,0.09,Wunderground v.1.15,2013-04-23 02:45:00,
2013-04-22 22:50:00,65.6,63.5,30.05,North,360,3.0,4.0,93,0.00,,,0.09,Wunderground v.1.15,2013-04-23 02:50:00,
2013-04-22 22:55:00,65.5,63.4,30.05,North,5,3.0,4.0,93,0.00,,,0.09,Wunderground v.1.15,2013-04-23 02:55:00,
2013-04-22 23:00:00,65.5,63.4,30.06,North,360,4.0,4.0,93,0.00,,,0.09,Wunderground v.1.15,2013-04-23 03:00:00,
2013-04-22 23:05:00,65.5,63.4,30.05,North,360,3.0,4.0,93,0.00,,,0.09,Wunderground v.1.15,2013-04-23 03:05:00,
2013-04-22 23:15:00,65.4,63.3,30.05,North,360,3.0,6.0,93,0.00,,,0.09,Wunderground v.1.15,2013-04-23 03:15:00,
2013-04-22 23:20:00,65.4,63.6,30.06,North,5,3.0,4.0,94,0.00,,,0.09,Wunderground v.1.15,2013-04-23 03:20:00,
2013-04-22 23:25:00,65.4,63.6,30.06,North,360,3.0,4.0,94,0.00,,,0.09,Wunderground v.1.15,2013-04-23 03:25:00,
2013-04-22 23:30:00,65.4,63.6,30.05,North,360,3.0,5.0,94,0.00,,,0.09,Wunderground v.1.15,2013-04-23 03:30:00,
2013-04-22 23:35:00,65.4,63.6,30.05,North,360,3.0,5.0,94,0.00,,,0.09,Wunderground v.1.15,2013-04-23 03:35:00,
2013-04-22 23:45:00,65.4,63.6,30.05,North,360,4.0,4.0,94,0.00,,,0.09,Wunderground v.1.15,2013-04-23 03:45:00,
2013-04-22 23:50:00,65.4,63.6,30.05,North,360,4.0,4.0,94,0.00,,,0.09,Wunderground v.1.15,2013-04-23 03:50:00,
2013-04-22 23:55:00,65.5,63.7,30.05,North,360,3.0,4.0,94,0.00,,,0.09,Wunderground v.1.15,2013-04-23 03:55:00,